Berthierville, Canada
Current Conditions -  °F | °C
As of 11:00 PM on Saturday 20 Dec 2014 (Local Time) from CYRQ Reporting Station
Overcast Overcast  
Wind Chill:   Ceiling: 1000
Heat Index: 10°   Visibility: 9mi
Dew Point:   Wind: 5mph
Humidity: 92%   Direction: 30°NNE
Pressure: 30.37"   Gusts: NA
Location:  46.08°N, 73.17°W
Report Text: CYRQ 210400Z AUTO 03004KT 9SM OVC010 M12/M13 A3037 RMK SLP289
Loading
Personal Weather Stations






























Interactive Weather Map New forecast layout! Learn more

10-Day Weather Forecast

Advertisements
Track Severe Weather on mobile